Andalusia, AL

7:55 AM CDT on July 04, 2015 (GMT -0500)
Chigger Hill off Moore Rd | | Change Station
CLOSE
Current Station
Personal Weather Station
Location: Andalusia, AL
Elevation: 280 ft
Nearby Weather Stations

Elev 280 ft 31.25 °N, 86.50 °W | Updated 24 seconds ago

Partly Cloudy
Partly Cloudy
77.8 °F
Feels Like 77 °F
N
0.0
Wind Variable Wind from West
Gusts 0.0 mph

Today
High -- | Low -- °F
--% Chance of Precip.
Yesterday
High -- | Low -- °F
Precip. -- in
5:47 AM 7:54 PM
Waning Gibbous, 92% visible
Pressure 30.07 in
Visibility 5.0 miles
Clouds Scattered Clouds 2200 ft
Scattered Clouds 2600 ft
Heat Index 77 °F
Dew Point 35 °F
Humidity 21%
Rainfall 0.00 in
Snow Depth Not available.
UV 1 out of 12
Pollen .50 out of 12
Air Quality Not available.
Flu Activity Not available.
METAR K79J 041156Z AUTO 00000KT 5SM HZ SCT022 SCT026 27/24 A3008 RMK AO2 SLP182 T02670239 10267 20256 53019

More Conditions Fewer Conditions

Pressure 30.07 in
Visibility 5.0 miles
Clouds Scattered Clouds 2200 ft
Scattered Clouds 2600 ft
Heat Index 77 °F
Dew Point 35 °F
Humidity 21%
Rainfall 0.00 in
Snow Depth Not available.
UV 1 out of 12
Pollen .50 out of 12
Air Quality Not available.
Flu Activity Not available.
METAR K79J 041156Z AUTO 00000KT 5SM HZ SCT022 SCT026 27/24 A3008 RMK AO2 SLP182 T02670239 10267 20256 53019

More Conditions Fewer Conditions

10-Day Weather Forecast

×

Almanac

Astronomy

Jul. 04, 2015 Rise Set
Actual Time
Civil Twilight
Nautical Twilight
Astronomical Twilight
Moon
Length of Visible Light
Length of Day
Tomorrow will be .
, % of the Moon is Illuminated

Today's Extremes

State Highs State Lows

Community

WunderPhotos

Upload Photos

1,834,948 photos uploaded!

WunderBlogs® & News

Nearby

Air Quality

  Air Quality AQ Index Pollutant
Not available.

Snow Depth

Station Depth Elevation

Earthquake Activity

City Distance Mag. Time & Date
Minimum magnitude displayed is 2.5.

Coastal Water Temperatures

Place Temperature

Stations

Nearby Weather Stations

Station Location Temp. Windchill Dew Point Humidity Wind Precip. Elev Updated Type